sensor_id;sensor_type;location;lat;lon;timestamp;P1;durP1;ratioP1;P2;durP2;ratioP2
8716;SDS011;4395;48.554;8.820;2023-12-28T00:01:42;2.58;;;2.15;;
8716;SDS011;4395;48.554;8.820;2023-12-28T00:03:45;3.30;;;2.28;;
8716;SDS011;4395;48.554;8.820;2023-12-28T00:05:50;2.70;;;2.35;;
8716;SDS011;4395;48.554;8.820;2023-12-28T00:07:53;3.05;;;2.47;;
8716;SDS011;4395;48.554;8.820;2023-12-28T00:10:00;3.13;;;2.22;;
8716;SDS011;4395;48.554;8.820;2023-12-28T00:12:04;2.67;;;2.47;;
8716;SDS011;4395;48.554;8.820;2023-12-28T00:14:07;4.28;;;2.67;;
8716;SDS011;4395;48.554;8.820;2023-12-28T00:16:09;6.20;;;5.00;;
8716;SDS011;4395;48.554;8.820;2023-12-28T00:18:12;4.45;;;3.00;;
8716;SDS011;4395;48.554;8.820;2023-12-28T00:20:15;2.28;;;1.95;;
8716;SDS011;4395;48.554;8.820;2023-12-28T00:22:18;3.22;;;2.70;;
8716;SDS011;4395;48.554;8.820;2023-12-28T00:24:21;3.28;;;2.45;;
8716;SDS011;4395;48.554;8.820;2023-12-28T00:26:24;3.95;;;3.13;;
8716;SDS011;4395;48.554;8.820;2023-12-28T00:28:36;5.30;;;3.63;;
8716;SDS011;4395;48.554;8.820;2023-12-28T00:30:39;9.13;;;6.20;;
8716;SDS011;4395;48.554;8.820;2023-12-28T00:32:42;13.40;;;8.80;;
8716;SDS011;4395;48.554;8.820;2023-12-28T00:34:47;13.18;;;8.15;;
8716;SDS011;4395;48.554;8.820;2023-12-28T00:36:50;15.32;;;9.35;;
8716;SDS011;4395;48.554;8.820;2023-12-28T00:38:54;5.65;;;4.13;;
8716;SDS011;4395;48.554;8.820;2023-12-28T00:40:57;2.45;;;2.25;;
8716;SDS011;4395;48.554;8.820;2023-12-28T00:43:00;2.00;;;1.80;;
8716;SDS011;4395;48.554;8.820;2023-12-28T00:45:05;5.25;;;2.97;;
8716;SDS011;4395;48.554;8.820;2023-12-28T00:47:09;2.80;;;2.20;;
8716;SDS011;4395;48.554;8.820;2023-12-28T00:49:12;2.47;;;2.22;;
8716;SDS011;4395;48.554;8.820;2023-12-28T00:51:15;4.38;;;2.42;;
8716;SDS011;4395;48.554;8.820;2023-12-28T00:53:17;4.72;;;3.30;;
8716;SDS011;4395;48.554;8.820;2023-12-28T00:55:22;3.92;;;3.38;;
8716;SDS011;4395;48.554;8.820;2023-12-28T00:57:24;18.00;;;10.52;;
8716;SDS011;4395;48.554;8.820;2023-12-28T00:59:27;10.48;;;6.97;;
8716;SDS011;4395;48.554;8.820;2023-12-28T01:01:31;5.93;;;4.40;;
8716;SDS011;4395;48.554;8.820;2023-12-28T01:03:34;5.07;;;4.50;;
8716;SDS011;4395;48.554;8.820;2023-12-28T01:05:37;9.18;;;6.05;;
8716;SDS011;4395;48.554;8.820;2023-12-28T01:07:39;9.40;;;5.95;;
8716;SDS011;4395;48.554;8.820;2023-12-28T01:09:42;4.05;;;3.65;;
8716;SDS011;4395;48.554;8.820;2023-12-28T01:11:47;3.92;;;3.42;;
8716;SDS011;4395;48.554;8.820;2023-12-28T01:13:50;3.90;;;3.25;;
8716;SDS011;4395;48.554;8.820;2023-12-28T01:15:54;5.28;;;3.60;;
8716;SDS011;4395;48.554;8.820;2023-12-28T01:17:57;4.35;;;3.58;;
8716;SDS011;4395;48.554;8.820;2023-12-28T01:20:00;5.05;;;3.72;;
8716;SDS011;4395;48.554;8.820;2023-12-28T01:22:03;4.78;;;4.28;;
8716;SDS011;4395;48.554;8.820;2023-12-28T01:24:06;4.95;;;4.45;;
8716;SDS011;4395;48.554;8.820;2023-12-28T01:26:12;4.90;;;3.67;;
8716;SDS011;4395;48.554;8.820;2023-12-28T01:28:16;3.90;;;3.42;;
8716;SDS011;4395;48.554;8.820;2023-12-28T01:30:19;4.55;;;3.20;;
8716;SDS011;4395;48.554;8.820;2023-12-28T01:32:22;5.45;;;3.75;;
8716;SDS011;4395;48.554;8.820;2023-12-28T01:34:26;4.28;;;3.67;;
8716;SDS011;4395;48.554;8.820;2023-12-28T01:36:30;3.70;;;3.15;;
8716;SDS011;4395;48.554;8.820;2023-12-28T01:38:33;3.20;;;2.88;;
8716;SDS011;4395;48.554;8.820;2023-12-28T01:40:36;2.83;;;2.53;;
8716;SDS011;4395;48.554;8.820;2023-12-28T01:42:39;2.95;;;2.00;;
8716;SDS011;4395;48.554;8.820;2023-12-28T01:44:44;4.03;;;2.22;;
8716;SDS011;4395;48.554;8.820;2023-12-28T01:46:47;2.97;;;2.40;;
8716;SDS011;4395;48.554;8.820;2023-12-28T01:48:50;2.63;;;2.15;;
8716;SDS011;4395;48.554;8.820;2023-12-28T01:50:53;2.13;;;1.85;;
8716;SDS011;4395;48.554;8.820;2023-12-28T01:52:55;2.60;;;1.45;;
8716;SDS011;4395;48.554;8.820;2023-12-28T01:55:03;2.00;;;1.60;;
8716;SDS011;4395;48.554;8.820;2023-12-28T01:57:07;1.35;;;1.25;;
8716;SDS011;4395;48.554;8.820;2023-12-28T01:59:11;1.85;;;1.50;;
8716;SDS011;4395;48.554;8.820;2023-12-28T02:01:17;2.28;;;1.60;;
8716;SDS011;4395;48.554;8.820;2023-12-28T02:03:20;2.40;;;1.80;;
8716;SDS011;4395;48.554;8.820;2023-12-28T02:05:23;2.42;;;2.10;;
8716;SDS011;4395;48.554;8.820;2023-12-28T02:07:26;2.45;;;2.25;;
8716;SDS011;4395;48.554;8.820;2023-12-28T02:09:30;3.50;;;3.20;;
8716;SDS011;4395;48.554;8.820;2023-12-28T02:11:39;3.85;;;2.33;;
8716;SDS011;4395;48.554;8.820;2023-12-28T02:13:43;5.88;;;3.13;;
8716;SDS011;4395;48.554;8.820;2023-12-28T02:15:46;3.92;;;3.10;;
8716;SDS011;4395;48.554;8.820;2023-12-28T02:17:54;3.13;;;2.83;;
8716;SDS011;4395;48.554;8.820;2023-12-28T02:20:03;5.45;;;4.95;;
8716;SDS011;4395;48.554;8.820;2023-12-28T02:22:08;3.90;;;3.50;;
8716;SDS011;4395;48.554;8.820;2023-12-28T02:24:13;4.15;;;3.75;;
8716;SDS011;4395;48.554;8.820;2023-12-28T02:26:17;2.13;;;1.92;;
8716;SDS011;4395;48.554;8.820;2023-12-28T02:28:21;1.92;;;1.83;;
8716;SDS011;4395;48.554;8.820;2023-12-28T02:30:24;2.47;;;2.20;;
8716;SDS011;4395;48.554;8.820;2023-12-28T02:32:28;2.63;;;2.42;;
8716;SDS011;4395;48.554;8.820;2023-12-28T02:34:42;3.65;;;3.10;;
8716;SDS011;4395;48.554;8.820;2023-12-28T02:36:46;4.88;;;3.00;;
8716;SDS011;4395;48.554;8.820;2023-12-28T02:38:50;3.00;;;2.70;;
8716;SDS011;4395;48.554;8.820;2023-12-28T02:40:56;3.50;;;3.00;;
8716;SDS011;4395;48.554;8.820;2023-12-28T02:43:03;3.08;;;2.50;;
8716;SDS011;4395;48.554;8.820;2023-12-28T02:45:06;3.58;;;2.53;;
8716;SDS011;4395;48.554;8.820;2023-12-28T02:47:08;1.92;;;1.52;;
8716;SDS011;4395;48.554;8.820;2023-12-28T02:49:11;1.45;;;1.35;;
8716;SDS011;4395;48.554;8.820;2023-12-28T02:51:14;2.25;;;2.05;;
8716;SDS011;4395;48.554;8.820;2023-12-28T02:53:17;2.33;;;2.00;;
8716;SDS011;4395;48.554;8.820;2023-12-28T02:55:19;2.58;;;1.98;;
8716;SDS011;4395;48.554;8.820;2023-12-28T02:57:22;1.52;;;1.42;;
8716;SDS011;4395;48.554;8.820;2023-12-28T02:59:26;2.33;;;1.52;;
8716;SDS011;4395;48.554;8.820;2023-12-28T03:01:29;1.63;;;1.50;;
8716;SDS011;4395;48.554;8.820;2023-12-28T03:03:31;2.70;;;1.70;;
8716;SDS011;4395;48.554;8.820;2023-12-28T03:05:34;2.47;;;1.48;;
8716;SDS011;4395;48.554;8.820;2023-12-28T03:07:37;1.60;;;1.50;;
8716;SDS011;4395;48.554;8.820;2023-12-28T03:09:41;1.70;;;1.60;;
8716;SDS011;4395;48.554;8.820;2023-12-28T03:11:43;2.90;;;1.38;;
8716;SDS011;4395;48.554;8.820;2023-12-28T03:13:46;1.65;;;1.52;;
8716;SDS011;4395;48.554;8.820;2023-12-28T03:15:51;1.52;;;1.40;;
8716;SDS011;4395;48.554;8.820;2023-12-28T03:17:54;2.03;;;1.65;;
8716;SDS011;4395;48.554;8.820;2023-12-28T03:19:56;2.25;;;2.05;;
8716;SDS011;4395;48.554;8.820;2023-12-28T03:21:59;1.80;;;1.60;;
8716;SDS011;4395;48.554;8.820;2023-12-28T03:24:02;2.20;;;1.70;;
8716;SDS011;4395;48.554;8.820;2023-12-28T03:26:07;2.30;;;1.50;;
8716;SDS011;4395;48.554;8.820;2023-12-28T03:28:10;1.60;;;1.38;;
8716;SDS011;4395;48.554;8.820;2023-12-28T03:30:12;2.05;;;1.73;;
8716;SDS011;4395;48.554;8.820;2023-12-28T03:32:17;1.73;;;1.58;;
8716;SDS011;4395;48.554;8.820;2023-12-28T03:34:20;2.38;;;1.60;;
8716;SDS011;4395;48.554;8.820;2023-12-28T03:36:25;1.60;;;1.50;;
8716;SDS011;4395;48.554;8.820;2023-12-28T03:38:28;2.90;;;1.55;;
8716;SDS011;4395;48.554;8.820;2023-12-28T03:40:30;2.20;;;1.98;;
8716;SDS011;4395;48.554;8.820;2023-12-28T03:42:33;1.83;;;1.45;;
8716;SDS011;4395;48.554;8.820;2023-12-28T03:44:35;2.13;;;1.73;;
8716;SDS011;4395;48.554;8.820;2023-12-28T03:46:37;2.03;;;1.58;;
8716;SDS011;4395;48.554;8.820;2023-12-28T03:48:42;2.60;;;2.00;;
8716;SDS011;4395;48.554;8.820;2023-12-28T03:50:45;9.80;;;5.47;;
8716;SDS011;4395;48.554;8.820;2023-12-28T03:52:48;4.00;;;2.85;;
8716;SDS011;4395;48.554;8.820;2023-12-28T03:54:51;2.45;;;2.25;;
8716;SDS011;4395;48.554;8.820;2023-12-28T03:56:54;2.78;;;2.55;;
8716;SDS011;4395;48.554;8.820;2023-12-28T03:58:57;3.42;;;2.05;;
8716;SDS011;4395;48.554;8.820;2023-12-28T04:01:00;2.40;;;2.03;;
8716;SDS011;4395;48.554;8.820;2023-12-28T04:03:03;3.58;;;2.85;;
8716;SDS011;4395;48.554;8.820;2023-12-28T04:05:08;4.70;;;3.90;;
8716;SDS011;4395;48.554;8.820;2023-12-28T04:07:11;4.57;;;3.30;;
8716;SDS011;4395;48.554;8.820;2023-12-28T04:09:14;4.05;;;2.75;;
8716;SDS011;4395;48.554;8.820;2023-12-28T04:11:19;2.53;;;2.22;;
8716;SDS011;4395;48.554;8.820;2023-12-28T04:13:21;2.90;;;2.30;;
8716;SDS011;4395;48.554;8.820;2023-12-28T04:15:25;2.40;;;1.77;;
8716;SDS011;4395;48.554;8.820;2023-12-28T04:17:27;2.30;;;2.10;;
8716;SDS011;4395;48.554;8.820;2023-12-28T04:19:30;1.95;;;1.75;;
8716;SDS011;4395;48.554;8.820;2023-12-28T04:21:36;1.60;;;1.50;;
8716;SDS011;4395;48.554;8.820;2023-12-28T04:23:39;3.45;;;1.67;;
8716;SDS011;4395;48.554;8.820;2023-12-28T04:25:42;1.90;;;1.60;;
8716;SDS011;4395;48.554;8.820;2023-12-28T04:27:44;1.60;;;1.50;;
8716;SDS011;4395;48.554;8.820;2023-12-28T04:29:47;1.90;;;1.80;;
8716;SDS011;4395;48.554;8.820;2023-12-28T04:31:50;2.03;;;1.80;;
8716;SDS011;4395;48.554;8.820;2023-12-28T04:33:54;1.88;;;1.58;;
8716;SDS011;4395;48.554;8.820;2023-12-28T04:35:57;2.15;;;1.60;;
8716;SDS011;4395;48.554;8.820;2023-12-28T04:38:03;2.08;;;1.52;;
8716;SDS011;4395;48.554;8.820;2023-12-28T04:40:06;1.73;;;1.40;;
8716;SDS011;4395;48.554;8.820;2023-12-28T04:42:10;1.55;;;1.45;;
8716;SDS011;4395;48.554;8.820;2023-12-28T04:44:12;2.60;;;2.00;;
8716;SDS011;4395;48.554;8.820;2023-12-28T04:46:15;1.88;;;1.50;;
8716;SDS011;4395;48.554;8.820;2023-12-28T04:48:18;2.05;;;1.60;;
8716;SDS011;4395;48.554;8.820;2023-12-28T04:50:22;1.42;;;1.33;;
8716;SDS011;4395;48.554;8.820;2023-12-28T04:52:24;1.58;;;1.30;;
8716;SDS011;4395;48.554;8.820;2023-12-28T04:54:29;1.67;;;1.50;;
8716;SDS011;4395;48.554;8.820;2023-12-28T04:56:34;3.15;;;1.98;;
8716;SDS011;4395;48.554;8.820;2023-12-28T04:58:37;2.03;;;1.83;;
8716;SDS011;4395;48.554;8.820;2023-12-28T05:00:40;1.40;;;1.30;;
8716;SDS011;4395;48.554;8.820;2023-12-28T05:02:42;1.17;;;1.08;;
8716;SDS011;4395;48.554;8.820;2023-12-28T05:04:44;1.20;;;1.10;;
8716;SDS011;4395;48.554;8.820;2023-12-28T05:06:47;1.65;;;1.52;;
8716;SDS011;4395;48.554;8.820;2023-12-28T05:08:50;1.48;;;1.38;;
8716;SDS011;4395;48.554;8.820;2023-12-28T05:10:55;1.58;;;1.48;;
8716;SDS011;4395;48.554;8.820;2023-12-28T05:12:57;1.95;;;1.65;;
8716;SDS011;4395;48.554;8.820;2023-12-28T05:15:03;1.42;;;1.25;;
8716;SDS011;4395;48.554;8.820;2023-12-28T05:17:06;1.55;;;1.27;;
8716;SDS011;4395;48.554;8.820;2023-12-28T05:19:09;1.50;;;1.40;;
8716;SDS011;4395;48.554;8.820;2023-12-28T05:21:12;1.58;;;1.40;;
8716;SDS011;4395;48.554;8.820;2023-12-28T05:23:16;3.13;;;1.50;;
8716;SDS011;4395;48.554;8.820;2023-12-28T05:25:18;5.18;;;1.60;;
8716;SDS011;4395;48.554;8.820;2023-12-28T05:27:22;1.55;;;1.38;;
8716;SDS011;4395;48.554;8.820;2023-12-28T05:29:25;2.13;;;1.60;;
8716;SDS011;4395;48.554;8.820;2023-12-28T05:31:28;1.33;;;1.23;;
8716;SDS011;4395;48.554;8.820;2023-12-28T05:33:30;1.80;;;1.42;;
8716;SDS011;4395;48.554;8.820;2023-12-28T05:35:33;1.67;;;1.58;;
8716;SDS011;4395;48.554;8.820;2023-12-28T05:37:36;1.45;;;1.30;;
8716;SDS011;4395;48.554;8.820;2023-12-28T05:39:38;1.70;;;1.23;;
8716;SDS011;4395;48.554;8.820;2023-12-28T05:41:40;1.80;;;1.48;;
8716;SDS011;4395;48.554;8.820;2023-12-28T05:43:44;1.55;;;1.38;;
8716;SDS011;4395;48.554;8.820;2023-12-28T05:45:47;2.15;;;1.45;;
8716;SDS011;4395;48.554;8.820;2023-12-28T05:47:50;1.45;;;1.35;;
8716;SDS011;4395;48.554;8.820;2023-12-28T05:49:52;3.25;;;2.58;;
8716;SDS011;4395;48.554;8.820;2023-12-28T05:51:55;1.80;;;1.40;;
8716;SDS011;4395;48.554;8.820;2023-12-28T05:53:57;2.53;;;1.17;;
8716;SDS011;4395;48.554;8.820;2023-12-28T05:56:00;2.70;;;1.50;;
8716;SDS011;4395;48.554;8.820;2023-12-28T05:58:05;1.55;;;1.30;;
8716;SDS011;4395;48.554;8.820;2023-12-28T06:00:10;1.50;;;1.30;;
8716;SDS011;4395;48.554;8.820;2023-12-28T06:02:13;2.70;;;1.58;;
8716;SDS011;4395;48.554;8.820;2023-12-28T06:04:16;2.60;;;1.30;;
8716;SDS011;4395;48.554;8.820;2023-12-28T06:06:19;1.42;;;0.98;;
8716;SDS011;4395;48.554;8.820;2023-12-28T06:08:22;1.30;;;0.98;;
8716;SDS011;4395;48.554;8.820;2023-12-28T06:10:28;1.63;;;1.30;;
8716;SDS011;4395;48.554;8.820;2023-12-28T06:12:31;1.65;;;1.52;;
8716;SDS011;4395;48.554;8.820;2023-12-28T06:14:34;2.42;;;1.80;;
8716;SDS011;4395;48.554;8.820;2023-12-28T06:16:38;1.48;;;1.13;;
8716;SDS011;4395;48.554;8.820;2023-12-28T06:18:41;1.48;;;1.20;;
8716;SDS011;4395;48.554;8.820;2023-12-28T06:20:44;1.60;;;1.45;;
8716;SDS011;4395;48.554;8.820;2023-12-28T06:22:46;2.67;;;1.40;;
8716;SDS011;4395;48.554;8.820;2023-12-28T06:24:50;1.58;;;1.30;;
8716;SDS011;4395;48.554;8.820;2023-12-28T06:26:53;1.83;;;1.23;;
8716;SDS011;4395;48.554;8.820;2023-12-28T06:28:56;2.53;;;1.70;;
8716;SDS011;4395;48.554;8.820;2023-12-28T06:30:58;2.05;;;1.60;;
8716;SDS011;4395;48.554;8.820;2023-12-28T06:33:04;1.55;;;1.17;;
8716;SDS011;4395;48.554;8.820;2023-12-28T06:35:06;6.80;;;3.65;;
8716;SDS011;4395;48.554;8.820;2023-12-28T06:37:10;3.70;;;2.47;;
8716;SDS011;4395;48.554;8.820;2023-12-28T06:39:12;6.47;;;4.22;;
8716;SDS011;4395;48.554;8.820;2023-12-28T06:41:15;6.75;;;4.55;;
8716;SDS011;4395;48.554;8.820;2023-12-28T06:43:18;4.78;;;3.72;;
8716;SDS011;4395;48.554;8.820;2023-12-28T06:45:20;5.38;;;3.25;;
8716;SDS011;4395;48.554;8.820;2023-12-28T06:47:28;4.18;;;2.97;;
8716;SDS011;4395;48.554;8.820;2023-12-28T06:49:32;3.03;;;2.67;;
8716;SDS011;4395;48.554;8.820;2023-12-28T06:51:35;4.95;;;4.03;;
8716;SDS011;4395;48.554;8.820;2023-12-28T06:53:38;6.28;;;4.53;;
8716;SDS011;4395;48.554;8.820;2023-12-28T06:55:41;8.45;;;5.15;;
8716;SDS011;4395;48.554;8.820;2023-12-28T06:57:44;3.85;;;3.42;;
8716;SDS011;4395;48.554;8.820;2023-12-28T06:59:47;2.05;;;1.90;;
8716;SDS011;4395;48.554;8.820;2023-12-28T07:01:49;3.15;;;1.80;;
8716;SDS011;4395;48.554;8.820;2023-12-28T07:03:52;2.22;;;1.38;;
8716;SDS011;4395;48.554;8.820;2023-12-28T07:05:56;1.77;;;1.02;;
8716;SDS011;4395;48.554;8.820;2023-12-28T07:07:59;1.60;;;1.50;;
8716;SDS011;4395;48.554;8.820;2023-12-28T07:10:02;1.60;;;1.45;;
8716;SDS011;4395;48.554;8.820;2023-12-28T07:12:06;3.17;;;2.00;;
8716;SDS011;4395;48.554;8.820;2023-12-28T07:14:09;4.32;;;1.55;;
8716;SDS011;4395;48.554;8.820;2023-12-28T07:16:12;2.75;;;1.95;;
8716;SDS011;4395;48.554;8.820;2023-12-28T07:18:15;1.17;;;1.10;;
8716;SDS011;4395;48.554;8.820;2023-12-28T07:20:17;3.13;;;1.48;;
8716;SDS011;4395;48.554;8.820;2023-12-28T07:22:21;5.60;;;3.65;;
8716;SDS011;4395;48.554;8.820;2023-12-28T07:24:23;2.53;;;2.10;;
8716;SDS011;4395;48.554;8.820;2023-12-28T07:26:26;1.63;;;1.52;;
8716;SDS011;4395;48.554;8.820;2023-12-28T07:28:28;2.20;;;1.88;;
8716;SDS011;4395;48.554;8.820;2023-12-28T07:30:30;2.80;;;1.88;;
8716;SDS011;4395;48.554;8.820;2023-12-28T07:32:33;2.13;;;1.90;;
8716;SDS011;4395;48.554;8.820;2023-12-28T07:34:36;3.83;;;3.42;;
8716;SDS011;4395;48.554;8.820;2023-12-28T07:36:39;2.53;;;2.10;;
8716;SDS011;4395;48.554;8.820;2023-12-28T07:38:46;3.33;;;2.28;;
8716;SDS011;4395;48.554;8.820;2023-12-28T07:40:49;3.58;;;2.70;;
8716;SDS011;4395;48.554;8.820;2023-12-28T07:42:52;2.30;;;2.10;;
8716;SDS011;4395;48.554;8.820;2023-12-28T07:44:54;3.35;;;2.70;;
8716;SDS011;4395;48.554;8.820;2023-12-28T07:46:56;2.72;;;2.50;;
8716;SDS011;4395;48.554;8.820;2023-12-28T07:48:59;3.42;;;2.40;;
8716;SDS011;4395;48.554;8.820;2023-12-28T07:51:03;2.85;;;2.55;;
8716;SDS011;4395;48.554;8.820;2023-12-28T07:53:06;3.65;;;2.97;;
8716;SDS011;4395;48.554;8.820;2023-12-28T07:55:10;4.43;;;3.20;;
8716;SDS011;4395;48.554;8.820;2023-12-28T07:57:13;3.30;;;2.42;;
8716;SDS011;4395;48.554;8.820;2023-12-28T07:59:15;3.63;;;2.45;;
8716;SDS011;4395;48.554;8.820;2023-12-28T08:01:18;4.45;;;2.65;;
8716;SDS011;4395;48.554;8.820;2023-12-28T08:03:21;3.53;;;2.13;;
8716;SDS011;4395;48.554;8.820;2023-12-28T08:05:24;3.53;;;1.80;;
8716;SDS011;4395;48.554;8.820;2023-12-28T08:07:26;4.15;;;2.50;;
8716;SDS011;4395;48.554;8.820;2023-12-28T08:09:29;3.72;;;2.63;;
8716;SDS011;4395;48.554;8.820;2023-12-28T08:11:33;16.63;;;10.60;;
8716;SDS011;4395;48.554;8.820;2023-12-28T08:13:36;2.65;;;2.30;;
8716;SDS011;4395;48.554;8.820;2023-12-28T08:15:38;2.38;;;1.80;;
8716;SDS011;4395;48.554;8.820;2023-12-28T08:17:41;4.05;;;3.17;;
8716;SDS011;4395;48.554;8.820;2023-12-28T08:19:44;4.00;;;3.00;;
8716;SDS011;4395;48.554;8.820;2023-12-28T08:21:47;3.95;;;2.50;;
8716;SDS011;4395;48.554;8.820;2023-12-28T08:23:50;6.13;;;4.22;;
8716;SDS011;4395;48.554;8.820;2023-12-28T08:25:53;2.75;;;1.85;;
8716;SDS011;4395;48.554;8.820;2023-12-28T08:27:57;4.53;;;1.85;;
8716;SDS011;4395;48.554;8.820;2023-12-28T08:30:00;1.95;;;1.40;;
8716;SDS011;4395;48.554;8.820;2023-12-28T08:32:03;2.13;;;1.42;;
8716;SDS011;4395;48.554;8.820;2023-12-28T08:34:06;1.65;;;1.38;;
8716;SDS011;4395;48.554;8.820;2023-12-28T08:36:09;2.72;;;1.65;;
8716;SDS011;4395;48.554;8.820;2023-12-28T08:38:12;2.65;;;1.63;;
8716;SDS011;4395;48.554;8.820;2023-12-28T08:40:15;2.72;;;1.45;;
8716;SDS011;4395;48.554;8.820;2023-12-28T08:42:18;2.60;;;1.60;;
8716;SDS011;4395;48.554;8.820;2023-12-28T08:44:22;1.40;;;1.15;;
8716;SDS011;4395;48.554;8.820;2023-12-28T08:46:25;2.35;;;1.50;;
8716;SDS011;4395;48.554;8.820;2023-12-28T08:48:28;2.00;;;1.55;;
8716;SDS011;4395;48.554;8.820;2023-12-28T08:50:31;2.22;;;1.70;;
8716;SDS011;4395;48.554;8.820;2023-12-28T08:52:33;1.60;;;1.40;;
8716;SDS011;4395;48.554;8.820;2023-12-28T08:54:36;1.65;;;1.48;;
8716;SDS011;4395;48.554;8.820;2023-12-28T08:56:39;1.77;;;1.60;;
8716;SDS011;4395;48.554;8.820;2023-12-28T08:58:42;3.60;;;1.48;;
8716;SDS011;4395;48.554;8.820;2023-12-28T09:00:46;2.70;;;2.30;;
8716;SDS011;4395;48.554;8.820;2023-12-28T09:02:50;4.65;;;2.40;;
8716;SDS011;4395;48.554;8.820;2023-12-28T09:04:53;2.47;;;2.28;;
8716;SDS011;4395;48.554;8.820;2023-12-28T09:06:56;3.92;;;2.50;;
8716;SDS011;4395;48.554;8.820;2023-12-28T09:08:58;3.05;;;2.75;;
8716;SDS011;4395;48.554;8.820;2023-12-28T09:11:00;2.35;;;2.03;;
8716;SDS011;4395;48.554;8.820;2023-12-28T09:13:03;2.40;;;2.20;;
8716;SDS011;4395;48.554;8.820;2023-12-28T09:15:07;2.42;;;1.88;;
8716;SDS011;4395;48.554;8.820;2023-12-28T09:17:12;2.20;;;2.00;;
8716;SDS011;4395;48.554;8.820;2023-12-28T09:19:14;1.92;;;1.77;;
8716;SDS011;4395;48.554;8.820;2023-12-28T09:21:17;2.10;;;1.90;;
8716;SDS011;4395;48.554;8.820;2023-12-28T09:23:20;2.00;;;1.73;;
8716;SDS011;4395;48.554;8.820;2023-12-28T09:25:23;2.10;;;1.90;;
8716;SDS011;4395;48.554;8.820;2023-12-28T09:27:26;3.30;;;2.00;;
8716;SDS011;4395;48.554;8.820;2023-12-28T09:29:28;2.58;;;1.75;;
8716;SDS011;4395;48.554;8.820;2023-12-28T09:31:31;1.70;;;1.60;;
8716;SDS011;4395;48.554;8.820;2023-12-28T09:33:36;1.80;;;1.52;;
8716;SDS011;4395;48.554;8.820;2023-12-28T09:35:38;1.35;;;1.25;;
8716;SDS011;4395;48.554;8.820;2023-12-28T09:37:43;2.63;;;1.60;;
8716;SDS011;4395;48.554;8.820;2023-12-28T09:39:46;2.88;;;1.77;;
8716;SDS011;4395;48.554;8.820;2023-12-28T09:41:49;1.33;;;1.23;;
8716;SDS011;4395;48.554;8.820;2023-12-28T09:43:58;2.65;;;1.40;;
8716;SDS011;4395;48.554;8.820;2023-12-28T09:46:06;2.25;;;1.70;;
8716;SDS011;4395;48.554;8.820;2023-12-28T09:48:11;1.85;;;1.50;;
8716;SDS011;4395;48.554;8.820;2023-12-28T09:50:15;2.75;;;1.75;;
8716;SDS011;4395;48.554;8.820;2023-12-28T09:52:20;2.40;;;2.13;;
8716;SDS011;4395;48.554;8.820;2023-12-28T09:54:23;3.42;;;2.20;;
8716;SDS011;4395;48.554;8.820;2023-12-28T09:56:26;4.25;;;2.80;;
8716;SDS011;4395;48.554;8.820;2023-12-28T09:58:31;3.58;;;2.22;;
8716;SDS011;4395;48.554;8.820;2023-12-28T10:00:35;2.42;;;1.48;;
8716;SDS011;4395;48.554;8.820;2023-12-28T10:02:38;2.10;;;1.55;;
8716;SDS011;4395;48.554;8.820;2023-12-28T10:04:42;2.58;;;1.70;;
8716;SDS011;4395;48.554;8.820;2023-12-28T10:06:47;2.45;;;1.80;;
8716;SDS011;4395;48.554;8.820;2023-12-28T10:08:49;4.22;;;2.35;;
8716;SDS011;4395;48.554;8.820;2023-12-28T10:10:52;2.35;;;1.75;;
8716;SDS011;4395;48.554;8.820;2023-12-28T10:12:55;1.98;;;1.58;;
8716;SDS011;4395;48.554;8.820;2023-12-28T10:14:58;1.73;;;1.60;;
8716;SDS011;4395;48.554;8.820;2023-12-28T10:17:01;2.05;;;1.15;;
8716;SDS011;4395;48.554;8.820;2023-12-28T10:19:04;2.83;;;2.55;;
8716;SDS011;4395;48.554;8.820;2023-12-28T10:21:07;4.47;;;2.33;;
8716;SDS011;4395;48.554;8.820;2023-12-28T10:23:11;2.00;;;1.80;;
8716;SDS011;4395;48.554;8.820;2023-12-28T10:25:13;1.92;;;1.73;;
8716;SDS011;4395;48.554;8.820;2023-12-28T10:27:16;1.65;;;1.30;;
8716;SDS011;4395;48.554;8.820;2023-12-28T10:29:19;1.20;;;1.10;;
8716;SDS011;4395;48.554;8.820;2023-12-28T10:31:22;1.70;;;1.17;;
8716;SDS011;4395;48.554;8.820;2023-12-28T10:33:25;1.75;;;1.25;;
8716;SDS011;4395;48.554;8.820;2023-12-28T10:35:29;1.35;;;1.25;;
8716;SDS011;4395;48.554;8.820;2023-12-28T10:37:32;1.80;;;1.30;;
8716;SDS011;4395;48.554;8.820;2023-12-28T10:39:36;2.13;;;1.60;;
8716;SDS011;4395;48.554;8.820;2023-12-28T10:41:43;3.38;;;1.80;;
8716;SDS011;4395;48.554;8.820;2023-12-28T10:43:51;2.47;;;1.23;;
8716;SDS011;4395;48.554;8.820;2023-12-28T10:46:01;1.55;;;1.15;;
8716;SDS011;4395;48.554;8.820;2023-12-28T10:48:07;2.17;;;1.70;;
8716;SDS011;4395;48.554;8.820;2023-12-28T10:50:11;3.55;;;1.65;;
8716;SDS011;4395;48.554;8.820;2023-12-28T10:52:14;2.60;;;1.58;;
8716;SDS011;4395;48.554;8.820;2023-12-28T10:54:23;2.35;;;1.60;;
8716;SDS011;4395;48.554;8.820;2023-12-28T10:56:39;3.63;;;1.85;;
8716;SDS011;4395;48.554;8.820;2023-12-28T10:58:49;1.92;;;1.65;;
8716;SDS011;4395;48.554;8.820;2023-12-28T11:00:52;3.30;;;2.00;;
8716;SDS011;4395;48.554;8.820;2023-12-28T11:03:02;5.30;;;4.25;;
8716;SDS011;4395;48.554;8.820;2023-12-28T11:05:07;2.60;;;2.30;;
8716;SDS011;4395;48.554;8.820;2023-12-28T11:07:10;2.15;;;1.95;;
8716;SDS011;4395;48.554;8.820;2023-12-28T11:09:15;3.17;;;2.70;;
8716;SDS011;4395;48.554;8.820;2023-12-28T11:11:18;3.63;;;2.22;;
8716;SDS011;4395;48.554;8.820;2023-12-28T11:13:25;3.40;;;3.05;;
8716;SDS011;4395;48.554;8.820;2023-12-28T11:15:28;3.00;;;2.50;;
8716;SDS011;4395;48.554;8.820;2023-12-28T11:17:33;2.72;;;2.00;;
8716;SDS011;4395;48.554;8.820;2023-12-28T11:19:38;4.95;;;2.45;;
8716;SDS011;4395;48.554;8.820;2023-12-28T11:21:41;3.28;;;2.55;;
8716;SDS011;4395;48.554;8.820;2023-12-28T11:23:46;3.85;;;2.58;;
8716;SDS011;4395;48.554;8.820;2023-12-28T11:25:49;3.40;;;2.55;;
8716;SDS011;4395;48.554;8.820;2023-12-28T11:27:51;2.88;;;2.50;;
8716;SDS011;4395;48.554;8.820;2023-12-28T11:29:55;2.22;;;2.03;;
8716;SDS011;4395;48.554;8.820;2023-12-28T11:31:58;2.15;;;1.70;;
8716;SDS011;4395;48.554;8.820;2023-12-28T11:34:04;2.65;;;2.45;;
8716;SDS011;4395;48.554;8.820;2023-12-28T11:36:10;1.90;;;1.60;;
8716;SDS011;4395;48.554;8.820;2023-12-28T11:38:13;2.78;;;2.10;;
8716;SDS011;4395;48.554;8.820;2023-12-28T11:40:19;2.40;;;2.20;;
8716;SDS011;4395;48.554;8.820;2023-12-28T11:42:23;2.97;;;2.10;;
8716;SDS011;4395;48.554;8.820;2023-12-28T11:44:26;2.55;;;1.40;;
8716;SDS011;4395;48.554;8.820;2023-12-28T11:46:30;2.67;;;2.42;;
8716;SDS011;4395;48.554;8.820;2023-12-28T11:48:33;2.67;;;2.38;;
8716;SDS011;4395;48.554;8.820;2023-12-28T11:50:36;3.55;;;3.00;;
8716;SDS011;4395;48.554;8.820;2023-12-28T11:52:41;2.50;;;2.25;;
8716;SDS011;4395;48.554;8.820;2023-12-28T11:54:47;2.28;;;1.70;;
8716;SDS011;4395;48.554;8.820;2023-12-28T11:56:51;2.78;;;1.63;;
8716;SDS011;4395;48.554;8.820;2023-12-28T11:58:54;2.30;;;2.10;;
8716;SDS011;4395;48.554;8.820;2023-12-28T12:00:56;2.03;;;1.60;;
8716;SDS011;4395;48.554;8.820;2023-12-28T12:03:00;1.70;;;1.60;;
8716;SDS011;4395;48.554;8.820;2023-12-28T12:05:03;4.03;;;1.88;;
8716;SDS011;4395;48.554;8.820;2023-12-28T12:07:09;1.85;;;1.58;;
8716;SDS011;4395;48.554;8.820;2023-12-28T12:09:11;1.95;;;1.50;;
8716;SDS011;4395;48.554;8.820;2023-12-28T12:11:14;2.50;;;1.75;;
8716;SDS011;4395;48.554;8.820;2023-12-28T12:13:20;3.83;;;2.40;;
8716;SDS011;4395;48.554;8.820;2023-12-28T12:15:22;1.73;;;1.63;;
8716;SDS011;4395;48.554;8.820;2023-12-28T12:17:25;2.53;;;1.85;;
8716;SDS011;4395;48.554;8.820;2023-12-28T12:19:30;2.17;;;1.90;;
8716;SDS011;4395;48.554;8.820;2023-12-28T12:21:33;2.42;;;1.60;;
8716;SDS011;4395;48.554;8.820;2023-12-28T12:23:36;2.08;;;1.65;;
8716;SDS011;4395;48.554;8.820;2023-12-28T12:25:40;2.60;;;2.40;;
8716;SDS011;4395;48.554;8.820;2023-12-28T12:27:43;2.28;;;1.23;;
8716;SDS011;4395;48.554;8.820;2023-12-28T12:29:46;2.40;;;1.25;;
8716;SDS011;4395;48.554;8.820;2023-12-28T12:31:49;3.00;;;1.83;;
8716;SDS011;4395;48.554;8.820;2023-12-28T12:33:52;2.22;;;1.80;;
8716;SDS011;4395;48.554;8.820;2023-12-28T12:35:57;1.90;;;1.70;;
8716;SDS011;4395;48.554;8.820;2023-12-28T12:37:59;1.60;;;1.35;;
8716;SDS011;4395;48.554;8.820;2023-12-28T12:40:02;3.00;;;2.60;;
8716;SDS011;4395;48.554;8.820;2023-12-28T12:42:07;1.77;;;1.67;;
8716;SDS011;4395;48.554;8.820;2023-12-28T12:44:14;1.63;;;1.33;;
8716;SDS011;4395;48.554;8.820;2023-12-28T12:46:19;2.22;;;1.63;;
8716;SDS011;4395;48.554;8.820;2023-12-28T12:48:23;1.83;;;1.35;;